Time;durP1;ratioP1;P1;durP2;ratioP2;P2;SDS_P1;SDS_P2;PMS_P1;PMS_P2;Temp;Humidity;BMP_temperature;BMP_pressure;BME280_temperature;BME280_humidity;BME280_pressure;Samples;Min_cycle;Max_cycle;Signal;HPM_P1;HPM_P2
2022/11/04 00:01:50;;;;;;;163.82;53.67;;;14.90;88.90;;;;;;5074773;28;20052;-15
2022/11/04 00:04:19;;;;;;;179.55;52.95;;;14.90;89.10;;;;;;5074781;28;20028;-15
2022/11/04 00:06:46;;;;;;;182.77;56.00;;;14.90;89.20;;;;;;5074841;28;20419;-15
2022/11/04 00:09:19;;;;;;;195.20;57.78;;;14.90;89.30;;;;;;5074613;28;20028;-16
2022/11/04 00:14:31;;;;;;;190.18;55.53;;;14.80;89.60;;;;;;5074822;28;20099;-16
2022/11/04 00:33:24;;;;;;;193.88;57.22;;;14.80;90.20;;;;;;5073931;28;20120;-15
2022/11/04 00:33:45;;;;;;;218.68;58.90;;;14.70;90.30;;;;;;5074559;28;20036;-15
2022/11/04 00:36:11;;;;;;;213.68;57.17;;;14.70;90.30;;;;;;5074505;28;20055;-15
2022/11/04 00:38:37;;;;;;;209.00;58.92;;;14.70;90.40;;;;;;5074072;28;20400;-15
2022/11/04 00:41:24;;;;;;;217.45;62.13;;;14.60;90.50;;;;;;5073774;28;20021;-15
2022/11/04 00:43:49;;;;;;;218.38;57.35;;;14.60;90.50;;;;;;5073920;28;20158;-14
2022/11/04 00:46:15;;;;;;;232.43;56.20;;;14.60;90.60;;;;;;5074183;28;20035;-16
2022/11/04 00:48:41;;;;;;;208.32;56.63;;;14.60;90.60;;;;;;5073943;28;20024;-17
2022/11/04 00:51:07;;;;;;;208.07;54.97;;;14.60;90.60;;;;;;5073554;28;20036;-15
2022/11/04 00:53:34;;;;;;;223.90;56.05;;;14.60;90.70;;;;;;5073761;28;20029;-14
2022/11/04 00:56:00;;;;;;;220.30;54.22;;;14.60;90.70;;;;;;5074049;28;20021;-14
2022/11/04 00:58:27;;;;;;;208.48;52.65;;;14.60;90.70;;;;;;5073969;28;20515;-14
2022/11/04 01:00:53;;;;;;;221.70;55.40;;;14.60;90.70;;;;;;5073696;28;20017;-15
2022/11/04 01:03:19;;;;;;;200.77;53.30;;;14.60;90.70;;;;;;5073601;28;20043;-15
2022/11/04 01:05:45;;;;;;;179.48;50.17;;;14.60;90.70;;;;;;5073654;28;20389;-14
2022/11/04 01:08:11;;;;;;;180.30;52.20;;;14.60;90.80;;;;;;5073801;28;20035;-15
2022/11/04 01:10:43;;;;;;;179.40;50.05;;;14.60;90.80;;;;;;5074261;28;20410;-15
2022/11/04 01:13:10;;;;;;;170.18;48.00;;;14.60;90.80;;;;;;5073509;28;20021;-14
2022/11/04 01:15:37;;;;;;;150.63;45.47;;;14.60;90.80;;;;;;5074020;28;20537;-17
2022/11/04 01:18:03;;;;;;;137.88;44.38;;;14.60;90.80;;;;;;5073389;28;20119;-15
2022/11/04 01:20:29;;;;;;;138.02;43.58;;;14.50;90.80;;;;;;5073667;28;20025;-15
2022/11/04 01:22:55;;;;;;;124.90;41.10;;;14.50;90.80;;;;;;5073199;28;20033;-15
2022/11/04 01:25:21;;;;;;;124.55;40.58;;;14.50;90.80;;;;;;5073328;28;20032;-17
2022/11/04 01:27:47;;;;;;;112.43;38.05;;;14.50;90.80;;;;;;5073093;28;20032;-18
2022/11/04 01:30:14;;;;;;;107.45;38.90;;;14.60;90.80;;;;;;5073414;28;20032;-15
2022/11/04 01:32:40;;;;;;;111.80;38.53;;;14.60;90.90;;;;;;5073044;28;20102;-17
2022/11/04 01:35:07;;;;;;;111.78;39.40;;;14.60;90.90;;;;;;5072962;28;20025;-16
2022/11/04 01:37:34;;;;;;;98.80;35.80;;;14.70;90.80;;;;;;5073459;28;20024;-16
2022/11/04 01:40:00;;;;;;;93.68;35.22;;;14.70;90.90;;;;;;5073104;28;20035;-16
2022/11/04 01:42:26;;;;;;;121.32;37.53;;;14.70;90.80;;;;;;5073310;28;20025;-16
2022/11/04 01:44:59;;;;;;;97.05;37.30;;;14.70;90.80;;;;;;5072357;28;20357;-15
2022/11/04 01:47:40;;;;;;;83.35;31.23;;;14.80;90.70;;;;;;5073137;28;20032;-16
2022/11/04 01:50:14;;;;;;;88.28;33.58;;;14.80;90.60;;;;;;5073664;28;20067;-16
2022/11/04 01:52:52;;;;;;;87.95;33.15;;;14.80;90.50;;;;;;5073146;28;20028;-15
2022/11/04 01:55:25;;;;;;;97.10;36.55;;;14.80;90.30;;;;;;5073649;28;20350;-14
2022/11/04 01:57:54;;;;;;;87.47;32.65;;;14.80;90.40;;;;;;5072865;28;20427;-15
2022/11/04 02:00:20;;;;;;;91.32;32.45;;;14.70;90.40;;;;;;5073254;28;20020;-15
2022/11/04 02:03:20;;;;;;;77.93;28.42;;;14.70;90.50;;;;;;5072931;28;20064;-16
2022/11/04 02:05:47;;;;;;;79.97;27.58;;;14.70;90.50;;;;;;5051013;28;20425;-15
2022/11/04 02:08:14;;;;;;;70.28;26.90;;;14.70;90.50;;;;;;5050729;28;20033;-14
2022/11/04 02:10:51;;;;;;;87.70;31.25;;;14.70;90.50;;;;;;5050598;28;20040;-16
2022/11/04 02:13:17;;;;;;;72.13;28.88;;;14.80;90.60;;;;;;5050720;28;20025;-15
2022/11/04 02:16:18;;;;;;;97.68;29.55;;;14.80;90.60;;;;;;5051007;28;20068;-15
2022/11/04 02:18:55;;;;;;;74.38;25.92;;;14.70;90.60;;;;;;5019249;28;20103;-17
2022/11/04 02:21:34;;;;;;;79.60;29.55;;;14.80;90.60;;;;;;5050661;28;20163;-15
2022/11/04 02:24:03;;;;;;;84.43;27.75;;;14.80;90.60;;;;;;5033900;28;20096;-14
2022/11/04 02:26:29;;;;;;;84.35;31.52;;;14.80;90.70;;;;;;5050844;28;20040;-17
2022/11/04 02:29:19;;;;;;;98.93;31.67;;;14.80;90.70;;;;;;5050384;28;20029;-17
2022/11/04 02:32:08;;;;;;;79.32;26.42;;;14.80;90.70;;;;;;5050297;28;20064;-16
2022/11/04 02:34:40;;;;;;;93.18;28.13;;;14.80;90.70;;;;;;5049718;28;20112;-16
2022/11/04 02:37:18;;;;;;;91.72;27.95;;;14.80;90.70;;;;;;5049374;28;20070;-15
2022/11/04 02:40:04;;;;;;;91.53;28.50;;;14.80;90.70;;;;;;5050196;28;20025;-16
2022/11/04 02:42:45;;;;;;;91.55;30.48;;;14.90;90.70;;;;;;5071263;28;20041;-15
2022/11/04 02:45:37;;;;;;;105.95;29.67;;;14.90;90.80;;;;;;5071386;28;20023;-15
2022/11/04 02:48:13;;;;;;;106.10;31.20;;;14.90;90.80;;;;;;5070286;28;20051;-15
2022/11/04 02:50:45;;;;;;;98.75;28.10;;;14.90;90.80;;;;;;5071410;28;20056;-15
2022/11/04 02:53:22;;;;;;;106.50;28.65;;;14.90;90.80;;;;;;5070044;28;20411;-17
2022/11/04 02:55:52;;;;;;;80.68;25.05;;;14.90;90.80;;;;;;5073675;28;20086;-16
2022/11/04 02:58:28;;;;;;;67.40;22.13;;;14.90;90.80;;;;;;5075127;28;20051;-16
2022/11/04 03:00:57;;;;;;;62.42;22.55;;;14.90;90.80;;;;;;5074884;28;20099;-14
2022/11/04 03:03:33;;;;;;;65.35;24.20;;;14.90;90.80;;;;;;5075084;28;20051;-16
2022/11/04 03:06:01;;;;;;;64.85;24.67;;;14.90;90.90;;;;;;5075204;28;20052;-15
2022/11/04 03:08:39;;;;;;;70.20;22.55;;;14.90;91.00;;;;;;5074683;28;20028;-15
2022/11/04 03:11:16;;;;;;;66.47;23.42;;;14.90;91.00;;;;;;5074401;28;20056;-14
2022/11/04 03:14:03;;;;;;;67.85;23.00;;;14.90;91.00;;;;;;5075128;28;20029;-16
2022/11/04 03:16:32;;;;;;;62.13;21.90;;;14.90;91.00;;;;;;5074559;28;20020;-15
2022/11/04 03:19:17;;;;;;;69.63;24.25;;;14.90;91.00;;;;;;5073086;28;20127;-15
2022/11/04 03:21:54;;;;;;;66.82;21.13;;;14.90;91.00;;;;;;5074534;28;20439;-14
2022/11/04 03:24:21;;;;;;;58.40;20.50;;;14.90;91.00;;;;;;5074817;28;20071;-15
2022/11/04 03:27:05;;;;;;;69.38;22.75;;;14.90;91.00;;;;;;5074306;28;20028;-16
2022/11/04 03:29:34;;;;;;;67.63;22.80;;;14.90;91.00;;;;;;5074332;28;20028;-16
2022/11/04 03:32:25;;;;;;;70.28;23.83;;;14.90;91.00;;;;;;5027526;28;1351045;-15
2022/11/04 03:34:51;;;;;;;56.17;19.13;;;14.90;91.00;;;;;;5075261;28;20119;-15
2022/11/04 03:37:17;;;;;;;58.83;19.13;;;15.00;91.00;;;;;;5075332;28;20029;-16
2022/11/04 03:39:44;;;;;;;65.85;20.70;;;15.00;90.90;;;;;;5075605;28;20028;-15
2022/11/04 03:42:22;;;;;;;62.20;19.63;;;15.10;91.00;;;;;;5075400;28;20049;-15
2022/11/04 03:44:56;;;;;;;64.05;20.10;;;15.10;90.90;;;;;;5075239;28;20021;-16
2022/11/04 03:47:24;;;;;;;70.45;24.88;;;15.10;90.90;;;;;;5075119;28;20032;-16
2022/11/04 03:50:27;;;;;;;61.85;20.30;;;15.20;90.90;;;;;;5075028;28;20017;-13
2022/11/04 03:52:54;;;;;;;56.30;18.50;;;15.10;90.80;;;;;;5075103;28;20032;-15
2022/11/04 03:55:22;;;;;;;46.10;16.25;;;15.20;90.80;;;;;;5075288;28;20093;-15
2022/11/04 03:57:52;;;;;;;54.80;18.05;;;15.20;90.80;;;;;;5074850;28;20025;-14
2022/11/04 04:00:21;;;;;;;70.55;22.05;;;15.20;90.70;;;;;;5075471;28;20012;-16
2022/11/04 04:03:05;;;;;;;49.40;17.45;;;15.30;90.70;;;;;;5075203;28;20372;-15
2022/11/04 04:05:37;;;;;;;49.08;16.75;;;15.30;90.70;;;;;;5074796;28;20495;-14
2022/11/04 04:08:19;;;;;;;49.88;16.45;;;15.30;90.60;;;;;;5074101;28;20021;-15
2022/11/04 04:11:00;;;;;;;72.13;20.92;;;15.40;90.60;;;;;;5074955;28;20075;-17
2022/11/04 04:13:34;;;;;;;48.30;16.30;;;15.40;90.50;;;;;;5074710;28;20381;-14
2022/11/04 04:16:08;;;;;;;38.08;15.10;;;15.40;90.40;;;;;;5075096;28;20521;-17
2022/11/04 04:18:46;;;;;;;59.88;20.48;;;15.40;90.40;;;;;;5074581;28;20033;-15
2022/11/04 04:21:18;;;;;;;57.75;19.35;;;15.40;90.30;;;;;;5074799;28;20024;-15
2022/11/04 04:29:21;;;;;;;38.15;14.90;;;15.40;90.20;;;;;;5074804;28;20396;-15
2022/11/04 04:31:48;;;;;;;30.48;12.68;;;15.40;90.20;;;;;;5073950;28;20058;-15
2022/11/04 04:34:16;;;;;;;32.05;12.43;;;15.40;90.10;;;;;;5073130;28;20039;-15
2022/11/04 04:36:50;;;;;;;32.50;12.55;;;15.40;90.10;;;;;;5074490;28;20035;-16
2022/11/04 04:45:02;;;;;;;19.73;9.27;;;15.50;90.00;;;;;;5074163;28;20075;-14
2022/11/04 04:47:45;;;;;;;20.08;9.60;;;15.50;89.90;;;;;;5072817;28;20028;-16
2022/11/04 04:50:16;;;;;;;17.17;8.60;;;15.60;89.50;;;;;;5074040;28;20435;-15
2022/11/04 04:52:46;;;;;;;18.98;8.88;;;15.60;89.50;;;;;;5074066;28;20472;-15
2022/11/04 04:55:13;;;;;;;18.33;8.20;;;15.60;89.40;;;;;;5074637;28;20052;-15
2022/11/04 04:57:39;;;;;;;17.60;8.27;;;15.50;89.40;;;;;;5074169;28;20032;-16
2022/11/04 05:00:09;;;;;;;20.33;8.20;;;15.50;89.30;;;;;;5073929;28;20025;-16
2022/11/04 05:02:35;;;;;;;14.75;8.52;;;15.40;89.20;;;;;;5072478;28;20029;-16
2022/11/04 05:05:01;;;;;;;16.27;8.27;;;15.50;89.20;;;;;;5073747;28;20112;-15
2022/11/04 05:07:27;;;;;;;11.73;7.20;;;15.50;89.20;;;;;;5073590;28;20020;-15
2022/11/04 05:09:53;;;;;;;18.42;8.15;;;15.40;89.20;;;;;;5073914;28;20074;-15
2022/11/04 05:12:18;;;;;;;16.45;7.78;;;15.40;89.30;;;;;;5073468;28;20485;-15
2022/11/04 05:14:44;;;;;;;14.65;8.00;;;15.40;89.20;;;;;;5073708;28;20111;-15
2022/11/04 05:17:11;;;;;;;16.25;7.60;;;15.40;89.20;;;;;;5073289;28;20434;-15
2022/11/04 05:19:37;;;;;;;17.08;8.02;;;15.40;89.20;;;;;;5073863;28;20020;-15
2022/11/04 05:22:04;;;;;;;16.27;7.22;;;15.40;89.20;;;;;;5073359;28;20499;-14
2022/11/04 05:24:30;;;;;;;12.00;7.30;;;15.40;89.20;;;;;;5073940;28;20025;-15
2022/11/04 05:26:56;;;;;;;14.60;8.57;;;15.30;89.20;;;;;;5071878;28;20028;-14
2022/11/04 05:29:22;;;;;;;15.95;7.45;;;15.40;89.30;;;;;;5072024;28;20026;-15
2022/11/04 05:31:48;;;;;;;10.95;7.18;;;15.30;89.30;;;;;;5073116;28;20052;-15
2022/11/04 05:34:14;;;;;;;12.55;7.90;;;15.30;89.30;;;;;;5073410;28;20017;-15
2022/11/04 05:36:40;;;;;;;17.10;8.32;;;15.30;89.20;;;;;;5073315;28;20035;-16
2022/11/04 05:39:06;;;;;;;15.80;7.22;;;15.20;89.20;;;;;;5072917;28;20074;-16
2022/11/04 05:41:33;;;;;;;12.57;6.65;;;15.20;89.20;;;;;;5073129;28;20020;-16
2022/11/04 05:44:01;;;;;;;13.77;6.75;;;15.20;89.20;;;;;;5073042;28;20499;-17
2022/11/04 05:46:28;;;;;;;13.27;7.70;;;15.20;89.20;;;;;;5073375;28;20033;-16
2022/11/04 05:48:55;;;;;;;13.65;7.20;;;15.20;89.30;;;;;;5073170;28;20032;-16
2022/11/04 05:51:24;;;;;;;12.40;6.57;;;15.10;89.20;;;;;;5072948;28;20112;-16
2022/11/04 05:53:50;;;;;;;21.38;9.82;;;15.10;89.10;;;;;;5073310;28;20052;-15
2022/11/04 05:56:17;;;;;;;12.90;6.68;;;15.10;89.20;;;;;;5073018;28;20131;-16
2022/11/04 05:58:43;;;;;;;12.50;6.50;;;15.10;89.20;;;;;;5073053;28;20033;-15
2022/11/04 06:01:23;;;;;;;11.32;7.05;;;15.00;89.10;;;;;;5073017;28;20024;-17
2022/11/04 06:03:50;;;;;;;13.77;7.43;;;15.00;89.20;;;;;;5072973;28;20436;-14
2022/11/04 06:06:16;;;;;;;15.57;8.75;;;15.00;89.20;;;;;;5073474;28;20028;-15
2022/11/04 06:08:42;;;;;;;12.23;6.32;;;15.00;89.20;;;;;;5073198;28;20392;-15
2022/11/04 06:11:08;;;;;;;12.50;6.63;;;15.00;89.20;;;;;;5072591;28;20024;-15
2022/11/04 06:13:34;;;;;;;11.43;7.18;;;15.00;89.20;;;;;;5072770;28;20025;-15
2022/11/04 06:16:00;;;;;;;14.27;7.90;;;15.00;89.30;;;;;;5072810;28;20099;-14
2022/11/04 06:18:26;;;;;;;15.35;7.90;;;15.00;89.20;;;;;;5072997;28;20025;-15
2022/11/04 06:21:15;;;;;;;9.90;6.07;;;15.00;89.20;;;;;;5072865;28;20040;-14
2022/11/04 06:23:42;;;;;;;11.38;6.13;;;15.00;89.20;;;;;;5073185;28;20487;-16
2022/11/04 06:26:09;;;;;;;13.02;7.70;;;15.00;89.20;;;;;;5072694;28;20407;-15
2022/11/04 06:28:35;;;;;;;12.02;7.13;;;15.00;89.20;;;;;;5072588;28;20032;-14
2022/11/04 06:31:04;;;;;;;14.02;7.45;;;15.00;89.10;;;;;;5074718;28;20025;-14
2022/11/04 06:33:30;;;;;;;10.68;5.95;;;15.00;89.10;;;;;;5076903;28;20036;-15
2022/11/04 06:36:01;;;;;;;13.07;6.55;;;14.90;89.10;;;;;;5076489;28;20458;-17
2022/11/04 06:38:30;;;;;;;11.05;6.75;;;14.90;89.10;;;;;;5076504;28;20021;-17
2022/11/04 06:40:56;;;;;;;15.98;7.40;;;14.90;89.00;;;;;;5076158;28;20025;-15
2022/11/04 06:43:23;;;;;;;11.27;6.38;;;14.80;88.90;;;;;;5076583;28;20376;-17
2022/11/04 06:45:56;;;;;;;10.63;6.35;;;14.70;88.90;;;;;;5077428;28;20075;-15
2022/11/04 06:48:22;;;;;;;;;;;14.70;89.00;;;;;;5076756;28;20029;-16
2022/11/04 06:50:48;;;;;;;14.40;6.85;;;14.70;89.00;;;;;;5076001;28;20380;-15
2022/11/04 06:53:14;;;;;;;13.63;7.40;;;14.60;89.00;;;;;;5076101;28;20063;-16
2022/11/04 06:55:40;;;;;;;13.60;7.85;;;14.60;89.00;;;;;;5076418;28;20115;-15
2022/11/04 06:58:06;;;;;;;29.90;9.40;;;14.60;89.00;;;;;;5076267;28;20024;-15
2022/11/04 07:00:32;;;;;;;17.85;9.30;;;14.60;89.10;;;;;;5076154;28;20033;-14
2022/11/04 07:02:58;;;;;;;46.08;10.15;;;14.60;89.10;;;;;;5075776;28;20024;-16
2022/11/04 07:05:24;;;;;;;12.57;6.57;;;14.60;89.10;;;;;;5075943;28;20028;-16
2022/11/04 07:07:50;;;;;;;28.23;9.00;;;14.60;89.10;;;;;;5076160;28;20039;-15
2022/11/04 07:10:16;;;;;;;19.83;11.85;;;14.60;89.10;;;;;;5075766;28;20480;-15
2022/11/04 07:12:42;;;;;;;42.53;22.98;;;14.70;89.10;;;;;;5075976;28;20025;-17
2022/11/04 07:15:09;;;;;;;21.58;12.57;;;14.90;89.20;;;;;;5075498;28;20503;-16
2022/11/04 07:17:36;;;;;;;23.15;12.40;;;15.00;89.20;;;;;;5075683;28;20396;-16
2022/11/04 07:20:04;;;;;;;26.83;15.60;;;15.20;89.30;;;;;;5075976;28;20041;-15
2022/11/04 07:22:30;;;;;;;21.02;11.45;;;15.40;89.20;;;;;;5074459;28;20024;-17
2022/11/04 07:24:56;;;;;;;18.75;11.75;;;15.50;89.30;;;;;;5075667;28;20082;-15
2022/11/04 07:27:22;;;;;;;22.77;11.90;;;15.70;89.20;;;;;;5074276;28;20423;-15
2022/11/04 07:29:48;;;;;;;24.55;11.82;;;15.90;89.30;;;;;;5075612;28;20112;-14
2022/11/04 07:32:14;;;;;;;28.77;13.50;;;16.10;89.20;;;;;;5075317;28;20048;-14
2022/11/04 07:34:40;;;;;;;27.23;14.45;;;16.40;89.20;;;;;;5075946;28;20494;-17
2022/11/04 07:37:06;;;;;;;21.88;12.63;;;16.60;89.20;;;;;;5075432;28;20040;-15
2022/11/04 07:39:31;;;;;;;19.00;10.60;;;16.90;89.00;;;;;;5075535;28;20033;-15
2022/11/04 07:41:57;;;;;;;18.58;11.55;;;17.00;88.90;;;;;;5073124;28;20024;-15
2022/11/04 07:44:23;;;;;;;18.67;9.38;;;17.10;88.60;;;;;;5075231;28;20040;-15
2022/11/04 07:46:49;;;;;;;15.63;9.48;;;17.20;88.30;;;;;;5075230;28;20066;-15
2022/11/04 07:49:16;;;;;;;17.60;9.65;;;17.30;87.80;;;;;;5075141;28;20028;-15
2022/11/04 07:51:48;;;;;;;14.70;8.27;;;17.40;87.50;;;;;;5075291;28;20081;-15
2022/11/04 07:54:14;;;;;;;17.60;9.02;;;17.30;87.30;;;;;;5075009;28;20040;-14
2022/11/04 07:56:40;;;;;;;14.75;8.77;;;17.30;87.00;;;;;;5075299;28;20032;-15
2022/11/04 07:59:06;;;;;;;16.60;8.68;;;17.20;86.60;;;;;;5074711;28;20047;-16
2022/11/04 08:01:32;;;;;;;15.00;8.00;;;17.10;86.50;;;;;;5075336;28;20032;-14
2022/11/04 08:03:58;;;;;;;11.70;8.13;;;17.00;86.30;;;;;;5074846;28;20549;-15
2022/11/04 08:06:24;;;;;;;18.45;8.60;;;16.90;85.80;;;;;;5075099;28;20040;-16
2022/11/04 08:08:52;;;;;;;16.50;8.82;;;16.90;85.10;;;;;;5074859;28;20064;-14
2022/11/04 08:11:24;;;;;;;20.38;9.68;;;16.80;84.70;;;;;;5074565;28;20033;-18
2022/11/04 08:13:50;;;;;;;20.20;10.93;;;16.70;84.90;;;;;;5074941;28;20025;-15
2022/11/04 08:16:18;;;;;;;17.08;10.52;;;16.50;85.10;;;;;;5074822;28;20130;-14
2022/11/04 08:18:46;;;;;;;45.58;13.43;;;16.30;85.30;;;;;;5075430;28;20040;-15
2022/11/04 08:21:12;;;;;;;31.85;13.10;;;16.10;85.80;;;;;;5074800;28;20469;-17
2022/11/04 08:23:39;;;;;;;24.25;12.63;;;16.00;86.00;;;;;;5074405;28;20028;-15
2022/11/04 08:26:10;;;;;;;23.65;11.52;;;15.90;85.90;;;;;;5074418;28;20054;-16
2022/11/04 08:28:37;;;;;;;19.38;10.90;;;15.90;85.70;;;;;;5074850;28;20024;-15
2022/11/04 08:31:11;;;;;;;22.58;10.73;;;15.60;85.70;;;;;;5074100;28;20127;-16
2022/11/04 08:33:39;;;;;;;16.75;8.68;;;15.40;86.60;;;;;;5074565;28;20036;-16
2022/11/04 08:36:13;;;;;;;14.38;7.03;;;15.20;86.80;;;;;;5074167;28;20415;-16
2022/11/04 08:38:38;;;;;;;8.38;4.20;;;15.00;86.80;;;;;;5074247;28;20069;-16
2022/11/04 08:41:07;;;;;;;6.18;2.95;;;14.90;86.40;;;;;;5073927;28;20028;-15
2022/11/04 08:43:34;;;;;;;6.20;3.00;;;14.70;86.10;;;;;;5073946;28;20480;-15
2022/11/04 08:46:02;;;;;;;7.22;2.63;;;14.50;85.80;;;;;;5074335;28;20077;-15
2022/11/04 08:48:28;;;;;;;4.88;2.60;;;14.40;86.40;;;;;;5074325;28;20035;-15
2022/11/04 08:50:57;;;;;;;6.10;3.00;;;14.30;86.60;;;;;;5073610;28;20036;-15
2022/11/04 08:53:24;;;;;;;5.40;2.95;;;14.20;86.70;;;;;;5073887;28;20025;-16
2022/11/04 08:55:50;;;;;;;3.17;2.20;;;14.10;86.90;;;;;;5074390;28;20063;-14
2022/11/04 08:58:17;;;;;;;4.90;2.72;;;14.00;87.10;;;;;;5073946;28;20484;-15
2022/11/04 09:00:43;;;;;;;6.60;3.15;;;14.00;87.30;;;;;;5073657;28;20024;-15
2022/11/04 09:03:09;;;;;;;5.65;2.85;;;13.90;87.50;;;;;;5073471;28;20476;-15
2022/11/04 09:05:44;;;;;;;7.53;3.28;;;13.90;87.80;;;;;;5073668;28;20081;-16
2022/11/04 09:08:11;;;;;;;11.52;5.15;;;14.20;88.40;;;;;;5073689;28;20094;-16
2022/11/04 09:10:44;;;;;;;12.07;3.92;;;14.60;88.70;;;;;;5073500;28;20024;-14
2022/11/04 09:13:10;;;;;;;8.30;3.50;;;15.10;88.60;;;;;;5073636;28;20048;-16
2022/11/04 09:15:37;;;;;;;7.32;3.05;;;15.50;88.50;;;;;;5073803;28;20025;-15
2022/11/04 09:18:04;;;;;;;7.22;4.03;;;15.90;88.10;;;;;;5073765;28;20024;-15
2022/11/04 09:20:30;;;;;;;4.78;2.90;;;16.10;87.30;;;;;;5073719;28;20079;-15
2022/11/04 09:22:57;;;;;;;3.50;2.30;;;16.30;85.80;;;;;;5073512;28;20036;-15
2022/11/04 09:25:23;;;;;;;3.53;2.10;;;16.40;84.10;;;;;;5073624;28;20025;-14
2022/11/04 09:27:49;;;;;;;3.30;2.30;;;16.60;84.10;;;;;;5073622;28;20135;-15
2022/11/04 09:30:15;;;;;;;2.75;1.90;;;16.80;84.60;;;;;;5073140;28;20020;-14
2022/11/04 09:32:41;;;;;;;2.47;1.42;;;16.90;83.40;;;;;;5073173;28;20101;-17
2022/11/04 09:35:07;;;;;;;1.30;1.10;;;17.10;82.50;;;;;;5073631;28;20451;-16
2022/11/04 09:37:33;;;;;;;1.23;1.02;;;17.30;79.40;;;;;;5074025;28;20033;-15
2022/11/04 09:40:00;;;;;;;1.98;1.10;;;17.40;77.80;;;;;;5073414;28;20028;-14
2022/11/04 09:42:36;;;;;;;0.50;0.50;;;17.50;77.50;;;;;;5073199;28;20031;-14
2022/11/04 09:45:10;;;;;;;0.73;0.70;;;17.70;73.90;;;;;;5072914;28;20116;-15
2022/11/04 09:47:39;;;;;;;1.25;0.57;;;17.60;74.40;;;;;;5073197;28;20024;-15
2022/11/04 09:50:11;;;;;;;1.17;0.70;;;17.60;74.70;;;;;;5073095;28;20029;-15
2022/11/04 09:52:43;;;;;;;1.60;0.77;;;17.60;74.40;;;;;;5073455;28;20116;-14
2022/11/04 09:55:50;;;;;;;1.00;0.60;;;17.60;74.70;;;;;;5072963;28;20111;-15
2022/11/04 09:58:17;;;;;;;1.02;0.80;;;17.80;74.90;;;;;;5051380;28;20588;-14
2022/11/04 10:00:52;;;;;;;0.93;0.50;;;18.00;74.40;;;;;;5051229;28;20057;-15
2022/11/04 10:03:51;;;;;;;1.92;0.47;;;18.00;71.90;;;;;;5051322;28;20532;-16
2022/11/04 10:06:26;;;;;;;2.35;0.70;;;18.20;68.90;;;;;;5054067;28;20064;-15
2022/11/04 10:08:57;;;;;;;0.93;0.80;;;18.10;68.30;;;;;;5054800;28;20086;-15
2022/11/04 10:11:35;;;;;;;1.83;0.80;;;18.10;65.80;;;;;;5054729;28;20041;-15
2022/11/04 10:14:26;;;;;;;0.88;0.63;;;18.10;65.30;;;;;;5054781;28;20025;-16
2022/11/04 10:17:13;;;;;;;0.77;0.70;;;18.10;64.60;;;;;;5054763;28;20366;-14
2022/11/04 10:19:58;;;;;;;1.30;0.82;;;18.20;63.50;;;;;;5054761;28;20029;-14
2022/11/04 10:22:34;;;;;;;0.98;0.90;;;18.10;64.90;;;;;;5054839;28;20037;-16
2022/11/04 10:25:22;;;;;;;4.10;0.80;;;18.20;64.20;;;;;;5054597;28;20029;-14
2022/11/04 10:27:50;;;;;;;3.58;0.50;;;18.40;63.30;;;;;;5055042;28;20104;-14
2022/11/04 10:30:20;;;;;;;0.60;0.60;;;18.60;60.70;;;;;;5076775;28;20357;-15
2022/11/04 10:33:04;;;;;;;1.08;0.70;;;18.50;61.00;;;;;;5076455;28;20400;-15
2022/11/04 10:35:50;;;;;;;1.27;0.70;;;18.60;61.90;;;;;;5076925;28;20041;-14
2022/11/04 10:38:26;;;;;;;0.95;0.77;;;18.50;63.10;;;;;;5076947;28;20032;-14
2022/11/04 10:40:55;;;;;;;0.98;0.75;;;18.60;63.20;;;;;;5076543;28;20082;-14
2022/11/04 10:43:35;;;;;;;0.80;0.80;;;18.90;61.40;;;;;;5076914;28;20013;-14
2022/11/04 10:46:27;;;;;;;1.77;0.60;;;18.90;61.80;;;;;;5076573;28;20074;-14
2022/11/04 10:49:07;;;;;;;1.40;0.80;;;19.00;61.30;;;;;;5076504;28;20082;-14
2022/11/04 10:51:33;;;;;;;5.03;0.73;;;19.00;61.30;;;;;;5076203;28;20032;-14
2022/11/04 10:54:01;;;;;;;15.55;1.17;;;19.10;60.80;;;;;;5076636;28;20075;-14
2022/11/04 10:56:42;;;;;;;2.78;0.80;;;19.10;60.00;;;;;;5076434;28;20038;-16
2022/11/04 10:59:33;;;;;;;0.57;0.57;;;19.20;59.80;;;;;;5075815;28;20035;-16
2022/11/04 11:02:01;;;;;;;5.95;0.70;;;19.20;59.20;;;;;;5076307;28;20017;-13
2022/11/04 11:04:30;;;;;;;7.78;1.05;;;19.20;58.20;;;;;;5075984;28;20480;-14
2022/11/04 11:06:58;;;;;;;1.20;0.88;;;19.10;59.10;;;;;;5074887;28;20028;-13
2022/11/04 11:09:28;;;;;;;2.20;1.00;;;19.10;58.30;;;;;;5075954;28;20028;-14
2022/11/04 11:12:15;;;;;;;1.00;0.82;;;18.90;58.60;;;;;;5076168;28;20068;-15
2022/11/04 11:14:42;;;;;;;1.08;0.68;;;18.70;58.60;;;;;;5071826;28;20032;-15
2022/11/04 11:17:20;;;;;;;1.42;0.80;;;18.50;58.40;;;;;;5075309;28;20020;-15
2022/11/04 11:20:20;;;;;;;0.65;0.65;;;18.40;58.70;;;;;;5075777;28;20058;-14
2022/11/04 11:22:50;;;;;;;0.98;0.70;;;18.40;59.00;;;;;;5075804;28;20025;-19
2022/11/04 11:25:28;;;;;;;0.90;0.70;;;18.40;58.70;;;;;;5075900;28;20025;-15
2022/11/04 11:27:58;;;;;;;0.98;0.82;;;18.40;58.40;;;;;;5076312;28;20096;-14
2022/11/04 11:30:26;;;;;;;1.15;0.60;;;18.40;59.10;;;;;;5075692;28;20082;-14
2022/11/04 11:32:55;;;;;;;1.55;0.88;;;18.50;59.20;;;;;;5075336;28;20044;-16
2022/11/04 11:35:27;;;;;;;1.67;0.80;;;18.50;59.80;;;;;;5075407;28;20032;-16
2022/11/04 11:37:53;;;;;;;0.77;0.77;;;18.60;59.20;;;;;;5075426;28;20560;-16
2022/11/04 11:40:30;;;;;;;1.38;0.80;;;18.80;59.10;;;;;;5075412;28;20531;-15
2022/11/04 11:42:59;;;;;;;1.58;1.10;;;18.90;58.70;;;;;;5075412;28;20024;-16
2022/11/04 11:45:26;;;;;;;1.00;0.70;;;19.00;59.30;;;;;;5075471;28;20028;-17
2022/11/04 11:47:55;;;;;;;1.42;1.00;;;19.20;59.00;;;;;;5075194;28;20024;-15
2022/11/04 11:50:33;;;;;;;3.67;1.00;;;19.30;57.70;;;;;;5075344;28;20029;-16
2022/11/04 11:53:22;;;;;;;1.50;0.80;;;19.40;57.60;;;;;;5075280;28;20051;-16
2022/11/04 11:56:16;;;;;;;2.25;0.80;;;19.50;57.00;;;;;;5075113;28;20058;-14
2022/11/04 11:59:06;;;;;;;2.40;0.98;;;19.60;57.80;;;;;;5074888;28;20034;-16
2022/11/04 12:02:00;;;;;;;1.10;1.00;;;19.70;56.90;;;;;;5074981;28;20024;-16
2022/11/04 12:04:26;;;;;;;3.10;0.90;;;19.80;56.30;;;;;;5074996;28;20095;-17
2022/11/04 12:07:19;;;;;;;0.80;0.80;;;19.80;56.60;;;;;;5074766;28;20024;-14
2022/11/04 12:09:58;;;;;;;2.00;0.80;;;20.10;55.90;;;;;;5074790;28;20054;-14
2022/11/04 12:12:36;;;;;;;1.58;0.80;;;20.20;55.80;;;;;;5074715;28;20040;-15
2022/11/04 12:15:17;;;;;;;1.33;0.60;;;20.40;55.50;;;;;;5074611;28;20043;-14
2022/11/04 12:18:13;;;;;;;0.60;0.60;;;20.60;54.70;;;;;;5074993;28;20043;-15
2022/11/04 12:20:51;;;;;;;1.23;1.00;;;20.70;53.30;;;;;;5052945;28;20048;-15
2022/11/04 12:23:22;;;;;;;1.25;1.02;;;20.70;53.10;;;;;;5074696;28;20025;-16
2022/11/04 12:26:09;;;;;;;0.80;0.75;;;20.80;53.40;;;;;;5074446;28;20040;-15
2022/11/04 12:28:44;;;;;;;2.30;2.10;;;20.90;53.20;;;;;;5073999;28;20123;-14
2022/11/04 12:31:18;;;;;;;1.10;1.00;;;20.80;53.00;;;;;;5074444;28;20477;-17
2022/11/04 12:33:55;;;;;;;1.80;0.95;;;20.80;54.20;;;;;;5074917;28;20031;-16
2022/11/04 12:36:30;;;;;;;0.80;0.80;;;20.90;53.50;;;;;;5074788;28;20036;-14
2022/11/04 12:39:18;;;;;;;4.75;1.20;;;21.00;53.20;;;;;;5073978;28;20036;-14
2022/11/04 12:42:24;;;;;;;3.45;0.90;;;20.90;53.50;;;;;;5074462;28;20043;-15
2022/11/04 12:44:59;;;;;;;7.03;1.13;;;20.90;52.50;;;;;;5070690;28;20024;-16
2022/11/04 12:47:25;;;;;;;0.93;0.93;;;20.80;54.20;;;;;;5074420;28;20107;-17
2022/11/04 12:50:15;;;;;;;0.93;0.80;;;20.70;53.80;;;;;;5074312;28;20501;-14
2022/11/04 12:52:48;;;;;;;1.45;0.73;;;20.80;53.90;;;;;;5074270;28;20066;-15
2022/11/04 12:55:27;;;;;;;1.58;0.70;;;20.90;53.90;;;;;;5074234;28;20052;-16
2022/11/04 12:58:01;;;;;;;1.25;0.82;;;21.10;52.60;;;;;;5073825;28;20119;-14
2022/11/04 13:00:30;;;;;;;0.57;0.50;;;21.30;51.40;;;;;;5074029;28;20056;-15
2022/11/04 13:03:04;;;;;;;1.15;0.60;;;21.40;52.40;;;;;;5073499;28;20111;-15
2022/11/04 13:05:41;;;;;;;1.23;0.50;;;21.50;52.10;;;;;;5074065;28;20029;-14
2022/11/04 13:08:19;;;;;;;1.08;0.40;;;21.60;51.70;;;;;;5073998;28;20021;-15
2022/11/04 13:10:48;;;;;;;0.82;0.60;;;21.70;48.50;;;;;;5074178;28;20036;-14
2022/11/04 13:13:17;;;;;;;0.75;0.60;;;21.80;48.90;;;;;;5073442;28;20036;-15
2022/11/04 13:15:51;;;;;;;2.38;0.63;;;22.00;48.40;;;;;;5073671;28;20033;-16
2022/11/04 13:18:19;;;;;;;1.50;1.13;;;22.10;49.00;;;;;;5072267;28;20047;-16
2022/11/04 13:21:07;;;;;;;2.15;0.93;;;22.20;49.80;;;;;;5073571;28;20103;-17
2022/11/04 13:23:42;;;;;;;2.95;1.17;;;22.30;49.70;;;;;;5073843;28;20078;-17
2022/11/04 13:26:14;;;;;;;2.70;0.45;;;22.20;50.40;;;;;;5072999;28;20024;-15
2022/11/04 13:28:42;;;;;;;1.00;0.40;;;22.10;47.20;;;;;;5073620;28;20063;-17